sensor_id;sensor_type;location;lat;lon;timestamp;pressure;altitude;pressure_sealevel;temperature;humidity
26443;BME280;5563;52.296;6.806;2023-05-23T00:01:34;101507.50;;;14.42;81.92
26443;BME280;5563;52.296;6.806;2023-05-23T00:04:11;101511.38;;;14.49;82.02
26443;BME280;5563;52.296;6.806;2023-05-23T00:06:44;101517.56;;;14.49;82.09
26443;BME280;5563;52.296;6.806;2023-05-23T00:09:38;101489.25;;;14.36;81.95
26443;BME280;5563;52.296;6.806;2023-05-23T00:12:20;101498.47;;;14.43;82.10
26443;BME280;5563;52.296;6.806;2023-05-23T00:14:54;101497.03;;;14.39;81.91
26443;BME280;5563;52.296;6.806;2023-05-23T00:17:28;101489.25;;;14.36;82.42
26443;BME280;5563;52.296;6.806;2023-05-23T00:20:07;101521.56;;;14.55;82.93
26443;BME280;5563;52.296;6.806;2023-05-23T00:22:40;101491.22;;;14.34;82.83
26443;BME280;5563;52.296;6.806;2023-05-23T00:25:24;101494.47;;;14.37;83.34
26443;BME280;5563;52.296;6.806;2023-05-23T00:28:01;101484.53;;;14.28;83.88
26443;BME280;5563;52.296;6.806;2023-05-23T00:30:35;101480.16;;;14.27;83.71
26443;BME280;5563;52.296;6.806;2023-05-23T00:33:09;101476.72;;;14.25;84.00
26443;BME280;5563;52.296;6.806;2023-05-23T00:35:45;101502.94;;;14.33;84.46
26443;BME280;5563;52.296;6.806;2023-05-23T00:38:18;101471.88;;;14.19;84.77
26443;BME280;5563;52.296;6.806;2023-05-23T00:40:52;101485.44;;;14.18;84.86
26443;BME280;5563;52.296;6.806;2023-05-23T00:43:26;101488.09;;;14.18;85.01
26443;BME280;5563;52.296;6.806;2023-05-23T00:46:00;101513.53;;;14.34;84.70
26443;BME280;5563;52.296;6.806;2023-05-23T00:48:34;101499.03;;;14.26;84.48
26443;BME280;5563;52.296;6.806;2023-05-23T00:51:04;101492.88;;;14.14;85.08
26443;BME280;5563;52.296;6.806;2023-05-23T00:53:41;101508.19;;;14.23;85.25
26443;BME280;5563;52.296;6.806;2023-05-23T00:56:15;101497.16;;;14.17;85.32
26443;BME280;5563;52.296;6.806;2023-05-23T00:58:56;101497.16;;;14.17;85.13
26443;BME280;5563;52.296;6.806;2023-05-23T01:01:37;101523.31;;;14.24;85.33
26443;BME280;5563;52.296;6.806;2023-05-23T01:04:12;101506.28;;;14.14;85.29
26443;BME280;5563;52.296;6.806;2023-05-23T01:06:39;101513.38;;;14.15;85.59
26443;BME280;5563;52.296;6.806;2023-05-23T01:09:16;101508.00;;;14.15;85.84
26443;BME280;5563;52.296;6.806;2023-05-23T01:18:11;101536.97;;;14.21;85.96
26443;BME280;5563;52.296;6.806;2023-05-23T01:20:56;101515.72;;;14.08;86.26
26443;BME280;5563;52.296;6.806;2023-05-23T01:29:46;101536.63;;;13.94;87.54
26443;BME280;5563;52.296;6.806;2023-05-23T01:32:20;101558.09;;;13.94;88.36
26443;BME280;5563;52.296;6.806;2023-05-23T01:35:05;101528.94;;;13.69;88.98
26443;BME280;5563;52.296;6.806;2023-05-23T01:37:34;101542.34;;;13.69;89.00
26443;BME280;5563;52.296;6.806;2023-05-23T01:40:08;101542.97;;;13.61;89.38
26443;BME280;5563;52.296;6.806;2023-05-23T01:42:43;101547.25;;;13.53;89.57
26443;BME280;5563;52.296;6.806;2023-05-23T01:45:10;101538.00;;;13.46;89.51
26443;BME280;5563;52.296;6.806;2023-05-23T01:47:48;101529.59;;;13.39;89.83
26443;BME280;5563;52.296;6.806;2023-05-23T01:50:19;101543.13;;;13.38;90.03
26443;BME280;5563;52.296;6.806;2023-05-23T01:52:54;101549.47;;;13.37;90.38
26443;BME280;5563;52.296;6.806;2023-05-23T01:55:24;101556.53;;;13.38;90.19
26443;BME280;5563;52.296;6.806;2023-05-23T01:57:58;101555.09;;;13.34;90.38
26443;BME280;5563;52.296;6.806;2023-05-23T02:00:26;101576.53;;;13.34;90.42
26443;BME280;5563;52.296;6.806;2023-05-23T02:03:04;101560.59;;;13.21;90.37
26443;BME280;5563;52.296;6.806;2023-05-23T02:05:40;101576.25;;;13.26;90.12
26443;BME280;5563;52.296;6.806;2023-05-23T02:08:18;101566.78;;;13.22;90.23
26443;BME280;5563;52.296;6.806;2023-05-23T02:10:45;101566.66;;;13.23;90.20
26443;BME280;5563;52.296;6.806;2023-05-23T02:13:19;101588.31;;;13.31;90.36
26443;BME280;5563;52.296;6.806;2023-05-23T02:15:48;101598.03;;;13.32;90.07
26443;BME280;5563;52.296;6.806;2023-05-23T02:18:22;101599.03;;;13.31;90.44
26443;BME280;5563;52.296;6.806;2023-05-23T02:20:57;101585.63;;;13.20;90.62
26443;BME280;5563;52.296;6.806;2023-05-23T02:23:31;101585.50;;;13.22;90.82
26443;BME280;5563;52.296;6.806;2023-05-23T02:25:58;101563.38;;;13.09;90.77
26443;BME280;5563;52.296;6.806;2023-05-23T02:28:32;101577.59;;;13.09;90.82
26443;BME280;5563;52.296;6.806;2023-05-23T02:31:07;101573.63;;;13.04;90.96
26443;BME280;5563;52.296;6.806;2023-05-23T02:33:42;101594.19;;;13.14;91.04
26443;BME280;5563;52.296;6.806;2023-05-23T02:36:18;101574.06;;;12.97;91.30
26443;BME280;5563;52.296;6.806;2023-05-23T02:38:45;101586.50;;;13.10;91.32
26443;BME280;5563;52.296;6.806;2023-05-23T02:41:28;101595.72;;;13.06;91.13
26443;BME280;5563;52.296;6.806;2023-05-23T02:43:55;101583.06;;;12.96;91.19
26443;BME280;5563;52.296;6.806;2023-05-23T02:46:29;101603.66;;;13.07;91.41
26443;BME280;5563;52.296;6.806;2023-05-23T02:48:56;101596.22;;;12.99;91.31
26443;BME280;5563;52.296;6.806;2023-05-23T02:51:30;101620.44;;;13.09;91.54
26443;BME280;5563;52.296;6.806;2023-05-23T02:53:58;101609.09;;;12.94;91.32
26443;BME280;5563;52.296;6.806;2023-05-23T02:56:31;101596.94;;;12.90;91.66
26443;BME280;5563;52.296;6.806;2023-05-23T02:59:04;101594.00;;;12.93;91.78
26443;BME280;5563;52.296;6.806;2023-05-23T03:01:38;101599.00;;;12.98;91.82
26443;BME280;5563;52.296;6.806;2023-05-23T03:04:06;101602.50;;;12.98;91.73
26443;BME280;5563;52.296;6.806;2023-05-23T03:06:40;101592.78;;;12.86;91.86
26443;BME280;5563;52.296;6.806;2023-05-23T03:09:14;101592.66;;;12.88;91.91
26443;BME280;5563;52.296;6.806;2023-05-23T03:11:49;101602.66;;;12.86;92.01
26443;BME280;5563;52.296;6.806;2023-05-23T03:14:19;101601.78;;;12.85;92.17
26443;BME280;5563;52.296;6.806;2023-05-23T03:16:47;101608.97;;;12.96;92.27
26443;BME280;5563;52.296;6.806;2023-05-23T03:19:20;101601.41;;;12.90;92.27
26443;BME280;5563;52.296;6.806;2023-05-23T03:21:48;101600.47;;;12.91;92.36
26443;BME280;5563;52.296;6.806;2023-05-23T03:24:23;101596.56;;;12.84;92.29
26443;BME280;5563;52.296;6.806;2023-05-23T03:26:53;101605.66;;;12.81;92.49
26443;BME280;5563;52.296;6.806;2023-05-23T03:29:29;101599.72;;;12.78;92.27
26443;BME280;5563;52.296;6.806;2023-05-23T03:31:57;101630.25;;;12.86;92.51
26443;BME280;5563;52.296;6.806;2023-05-23T03:34:31;101609.06;;;12.72;92.64
26443;BME280;5563;52.296;6.806;2023-05-23T03:37:05;101609.44;;;12.68;92.81
26443;BME280;5563;52.296;6.806;2023-05-23T03:39:39;101631.34;;;12.84;92.62
26443;BME280;5563;52.296;6.806;2023-05-23T03:42:06;101605.53;;;12.61;92.36
26443;BME280;5563;52.296;6.806;2023-05-23T03:44:37;101627.28;;;12.67;92.56
26443;BME280;5563;52.296;6.806;2023-05-23T03:47:14;101629.00;;;12.68;92.57
26443;BME280;5563;52.296;6.806;2023-05-23T03:49:41;101626.56;;;12.65;92.54
26443;BME280;5563;52.296;6.806;2023-05-23T03:52:15;101650.06;;;12.73;92.54
26443;BME280;5563;52.296;6.806;2023-05-23T03:54:45;101607.06;;;12.52;92.63
26443;BME280;5563;52.296;6.806;2023-05-23T03:57:22;101625.19;;;12.60;92.48
26443;BME280;5563;52.296;6.806;2023-05-23T03:59:49;101627.50;;;12.53;92.35
26443;BME280;5563;52.296;6.806;2023-05-23T04:02:23;101659.03;;;12.72;92.39
26443;BME280;5563;52.296;6.806;2023-05-23T04:04:54;101635.66;;;12.52;92.56
26443;BME280;5563;52.296;6.806;2023-05-23T04:07:29;101639.78;;;12.56;92.54
26443;BME280;5563;52.296;6.806;2023-05-23T04:10:00;101634.41;;;12.45;92.37
26443;BME280;5563;52.296;6.806;2023-05-23T04:12:37;101638.16;;;12.42;92.53
26443;BME280;5563;52.296;6.806;2023-05-23T04:15:07;101638.28;;;12.41;92.61
26443;BME280;5563;52.296;6.806;2023-05-23T04:17:44;101646.19;;;12.42;92.47
26443;BME280;5563;52.296;6.806;2023-05-23T04:20:17;101681.38;;;12.60;92.64
26443;BME280;5563;52.296;6.806;2023-05-23T04:22:53;101668.81;;;12.49;92.49
26443;BME280;5563;52.296;6.806;2023-05-23T04:25:21;101686.34;;;12.53;92.74
26443;BME280;5563;52.296;6.806;2023-05-23T04:27:55;101666.56;;;12.32;92.78
26443;BME280;5563;52.296;6.806;2023-05-23T04:30:23;101682.06;;;12.40;92.63
26443;BME280;5563;52.296;6.806;2023-05-23T04:32:57;101685.81;;;12.37;92.59
26443;BME280;5563;52.296;6.806;2023-05-23T04:35:40;101679.81;;;12.34;92.37
26443;BME280;5563;52.296;6.806;2023-05-23T04:38:07;101686.16;;;12.33;92.69
26443;BME280;5563;52.296;6.806;2023-05-23T04:40:45;101697.75;;;12.44;92.44
26443;BME280;5563;52.296;6.806;2023-05-23T04:43:17;101711.88;;;12.46;92.41
26443;BME280;5563;52.296;6.806;2023-05-23T04:45:52;101704.59;;;12.48;92.30
26443;BME280;5563;52.296;6.806;2023-05-23T04:48:23;101679.44;;;12.27;92.14
26443;BME280;5563;52.296;6.806;2023-05-23T04:50:57;101687.22;;;12.30;92.12
26443;BME280;5563;52.296;6.806;2023-05-23T04:53:28;101689.03;;;12.30;91.99
26443;BME280;5563;52.296;6.806;2023-05-23T04:56:02;101699.28;;;12.36;91.68
26443;BME280;5563;52.296;6.806;2023-05-23T04:58:30;101701.22;;;12.34;91.61
26443;BME280;5563;52.296;6.806;2023-05-23T05:01:04;101715.47;;;12.34;92.01
26443;BME280;5563;52.296;6.806;2023-05-23T05:03:32;101730.81;;;12.43;92.00
26443;BME280;5563;52.296;6.806;2023-05-23T05:06:09;101723.59;;;12.33;91.77
26443;BME280;5563;52.296;6.806;2023-05-23T05:08:47;101727.22;;;12.32;91.87
26443;BME280;5563;52.296;6.806;2023-05-23T05:11:16;101742.72;;;12.39;91.73
26443;BME280;5563;52.296;6.806;2023-05-23T05:13:50;101713.56;;;12.24;91.47
26443;BME280;5563;52.296;6.806;2023-05-23T05:16:18;101718.06;;;12.23;91.28
26443;BME280;5563;52.296;6.806;2023-05-23T05:18:51;101722.31;;;12.26;91.21
26443;BME280;5563;52.296;6.806;2023-05-23T05:21:19;101738.44;;;12.37;91.43
26443;BME280;5563;52.296;6.806;2023-05-23T05:23:53;101756.78;;;12.54;91.15
26443;BME280;5563;52.296;6.806;2023-05-23T05:26:21;101736.38;;;12.40;90.81
26443;BME280;5563;52.296;6.806;2023-05-23T05:28:55;101736.88;;;12.45;90.64
26443;BME280;5563;52.296;6.806;2023-05-23T05:31:23;101750.69;;;12.52;90.27
26443;BME280;5563;52.296;6.806;2023-05-23T05:33:59;101770.66;;;12.59;90.29
26443;BME280;5563;52.296;6.806;2023-05-23T05:36:33;101783.03;;;12.60;90.40
26443;BME280;5563;52.296;6.806;2023-05-23T05:39:07;101753.03;;;12.44;89.44
26443;BME280;5563;52.296;6.806;2023-05-23T05:41:34;101765.34;;;12.46;89.48
26443;BME280;5563;52.296;6.806;2023-05-23T05:44:02;101779.78;;;12.44;89.12
26443;BME280;5563;52.296;6.806;2023-05-23T05:46:35;101766.38;;;12.33;89.16
26443;BME280;5563;52.296;6.806;2023-05-23T05:49:03;101769.13;;;12.31;89.00
26443;BME280;5563;52.296;6.806;2023-05-23T05:51:38;101776.03;;;12.23;88.86
26443;BME280;5563;52.296;6.806;2023-05-23T05:54:09;101795.84;;;12.20;89.23
26443;BME280;5563;52.296;6.806;2023-05-23T05:56:46;101809.59;;;12.27;89.49
26443;BME280;5563;52.296;6.806;2023-05-23T05:59:13;101806.41;;;12.22;89.26
26443;BME280;5563;52.296;6.806;2023-05-23T06:01:47;101796.81;;;12.07;89.10
26443;BME280;5563;52.296;6.806;2023-05-23T06:04:17;101803.34;;;12.03;89.68
26443;BME280;5563;52.296;6.806;2023-05-23T06:06:55;101824.16;;;12.10;89.49
26443;BME280;5563;52.296;6.806;2023-05-23T06:09:22;101812.00;;;12.06;89.74
26443;BME280;5563;52.296;6.806;2023-05-23T06:11:59;101802.16;;;11.94;89.85
26443;BME280;5563;52.296;6.806;2023-05-23T06:14:35;101802.91;;;11.96;89.56
26443;BME280;5563;52.296;6.806;2023-05-23T06:17:04;101797.56;;;11.96;89.79
26443;BME280;5563;52.296;6.806;2023-05-23T06:19:37;101817.44;;;12.05;89.72
26443;BME280;5563;52.296;6.806;2023-05-23T06:22:11;101801.13;;;11.97;89.79
26443;BME280;5563;52.296;6.806;2023-05-23T06:24:48;101840.72;;;12.15;90.07
26443;BME280;5563;52.296;6.806;2023-05-23T06:27:27;101824.06;;;11.99;89.58
26443;BME280;5563;52.296;6.806;2023-05-23T06:30:04;101851.88;;;12.09;89.71
26443;BME280;5563;52.296;6.806;2023-05-23T06:32:42;101838.41;;;11.98;89.61
26443;BME280;5563;52.296;6.806;2023-05-23T06:35:15;101858.00;;;11.99;89.82
26443;BME280;5563;52.296;6.806;2023-05-23T06:37:50;101827.63;;;11.74;89.52
26443;BME280;5563;52.296;6.806;2023-05-23T06:40:26;101836.41;;;11.76;90.72
26443;BME280;5563;52.296;6.806;2023-05-23T06:42:54;101875.59;;;11.88;90.80
26443;BME280;5563;52.296;6.806;2023-05-23T06:45:28;101860.88;;;11.83;91.00
26443;BME280;5563;52.296;6.806;2023-05-23T06:47:56;101845.91;;;11.68;90.62
26443;BME280;5563;52.296;6.806;2023-05-23T06:50:29;101857.25;;;11.71;90.33
26443;BME280;5563;52.296;6.806;2023-05-23T06:53:03;101880.53;;;11.82;90.16
26443;BME280;5563;52.296;6.806;2023-05-23T06:55:34;101863.44;;;11.72;90.10
26443;BME280;5563;52.296;6.806;2023-05-23T06:58:10;101887.81;;;11.80;89.86
26443;BME280;5563;52.296;6.806;2023-05-23T07:00:43;101873.50;;;11.68;89.91
26443;BME280;5563;52.296;6.806;2023-05-23T07:03:20;101895.19;;;11.76;89.87
26443;BME280;5563;52.296;6.806;2023-05-23T07:05:50;101888.38;;;11.58;89.15
26443;BME280;5563;52.296;6.806;2023-05-23T07:08:27;101870.63;;;11.45;89.10
26443;BME280;5563;52.296;6.806;2023-05-23T07:11:03;101902.19;;;11.52;88.61
26443;BME280;5563;52.296;6.806;2023-05-23T07:13:31;101887.41;;;11.34;88.66
26443;BME280;5563;52.296;6.806;2023-05-23T07:16:01;101893.72;;;11.33;88.43
26443;BME280;5563;52.296;6.806;2023-05-23T07:18:41;101896.44;;;11.32;87.65
26443;BME280;5563;52.296;6.806;2023-05-23T07:21:09;101889.53;;;11.29;87.59
26443;BME280;5563;52.296;6.806;2023-05-23T07:23:50;101913.81;;;11.51;87.80
26443;BME280;5563;52.296;6.806;2023-05-23T07:26:18;101916.94;;;11.58;87.29
26443;BME280;5563;52.296;6.806;2023-05-23T07:28:55;101907.16;;;11.44;86.45
26443;BME280;5563;52.296;6.806;2023-05-23T07:31:22;101909.84;;;11.44;86.45
26443;BME280;5563;52.296;6.806;2023-05-23T07:34:03;101890.94;;;11.35;86.84
26443;BME280;5563;52.296;6.806;2023-05-23T07:36:43;101919.13;;;11.51;86.27
26443;BME280;5563;52.296;6.806;2023-05-23T07:39:17;101911.75;;;11.42;85.87
26443;BME280;5563;52.296;6.806;2023-05-23T07:41:56;101918.94;;;11.42;86.08
26443;BME280;5563;52.296;6.806;2023-05-23T07:44:27;101938.47;;;11.55;85.55
26443;BME280;5563;52.296;6.806;2023-05-23T07:47:04;101928.44;;;11.46;85.40
26443;BME280;5563;52.296;6.806;2023-05-23T07:49:39;101918.06;;;11.41;85.36
26443;BME280;5563;52.296;6.806;2023-05-23T07:52:06;101933.22;;;11.41;84.94
26443;BME280;5563;52.296;6.806;2023-05-23T07:54:40;101922.00;;;11.36;84.42
26443;BME280;5563;52.296;6.806;2023-05-23T07:57:08;101961.03;;;11.51;84.97
26443;BME280;5563;52.296;6.806;2023-05-23T07:59:38;101964.78;;;11.61;85.25
26443;BME280;5563;52.296;6.806;2023-05-23T08:02:14;101960.91;;;11.79;84.61
26443;BME280;5563;52.296;6.806;2023-05-23T08:04:54;101936.13;;;11.89;84.54
26443;BME280;5563;52.296;6.806;2023-05-23T08:07:34;101933.88;;;11.96;82.58
26443;BME280;5563;52.296;6.806;2023-05-23T08:10:11;101925.34;;;12.04;82.35
26443;BME280;5563;52.296;6.806;2023-05-23T08:12:46;101947.25;;;12.09;81.29
26443;BME280;5563;52.296;6.806;2023-05-23T08:15:19;101931.31;;;12.07;82.35
26443;BME280;5563;52.296;6.806;2023-05-23T08:17:57;101949.50;;;12.40;82.57
26443;BME280;5563;52.296;6.806;2023-05-23T08:20:26;101952.88;;;12.54;80.35
26443;BME280;5563;52.296;6.806;2023-05-23T08:23:04;101930.66;;;12.54;80.21
26443;BME280;5563;52.296;6.806;2023-05-23T08:25:41;101947.75;;;12.64;80.41
26443;BME280;5563;52.296;6.806;2023-05-23T08:28:10;101941.25;;;12.55;79.37
26443;BME280;5563;52.296;6.806;2023-05-23T08:30:47;101986.69;;;12.68;78.62
26443;BME280;5563;52.296;6.806;2023-05-23T08:33:28;101967.34;;;12.52;79.66
26443;BME280;5563;52.296;6.806;2023-05-23T08:36:01;101953.25;;;12.25;79.82
26443;BME280;5563;52.296;6.806;2023-05-23T08:38:31;101949.19;;;12.19;79.05
26443;BME280;5563;52.296;6.806;2023-05-23T08:41:10;101964.81;;;12.13;79.49
26443;BME280;5563;52.296;6.806;2023-05-23T08:43:42;101983.00;;;12.20;79.34
26443;BME280;5563;52.296;6.806;2023-05-23T08:46:21;101982.13;;;12.20;79.26
26443;BME280;5563;52.296;6.806;2023-05-23T08:48:53;101964.38;;;12.06;79.63
26443;BME280;5563;52.296;6.806;2023-05-23T08:51:30;101962.34;;;12.10;79.76
26443;BME280;5563;52.296;6.806;2023-05-23T08:54:03;101991.97;;;12.32;79.61
26443;BME280;5563;52.296;6.806;2023-05-23T08:56:39;101989.81;;;12.24;79.20
26443;BME280;5563;52.296;6.806;2023-05-23T08:59:08;101990.44;;;12.15;78.70
26443;BME280;5563;52.296;6.806;2023-05-23T09:01:42;101998.28;;;12.18;78.32
26443;BME280;5563;52.296;6.806;2023-05-23T09:04:14;102021.59;;;12.16;78.05
26443;BME280;5563;52.296;6.806;2023-05-23T09:06:48;102006.94;;;12.09;77.95
26443;BME280;5563;52.296;6.806;2023-05-23T09:09:24;102012.94;;;12.25;78.46
26443;BME280;5563;52.296;6.806;2023-05-23T09:11:54;101995.50;;;12.32;74.96
26443;BME280;5563;52.296;6.806;2023-05-23T09:14:28;102002.75;;;12.55;75.51
26443;BME280;5563;52.296;6.806;2023-05-23T09:17:01;102016.53;;;12.87;75.26
26443;BME280;5563;52.296;6.806;2023-05-23T09:19:39;101981.06;;;13.09;74.11
26443;BME280;5563;52.296;6.806;2023-05-23T09:22:10;101984.53;;;13.22;72.86
26443;BME280;5563;52.296;6.806;2023-05-23T09:24:50;102008.38;;;13.37;72.70
26443;BME280;5563;52.296;6.806;2023-05-23T09:27:19;102000.16;;;13.28;71.53
26443;BME280;5563;52.296;6.806;2023-05-23T09:29:52;102004.59;;;13.16;70.62
26443;BME280;5563;52.296;6.806;2023-05-23T09:32:20;102038.09;;;13.22;69.37
26443;BME280;5563;52.296;6.806;2023-05-23T09:35:07;102018.31;;;12.99;70.88
26443;BME280;5563;52.296;6.806;2023-05-23T09:37:39;102032.38;;;13.02;70.56
26443;BME280;5563;52.296;6.806;2023-05-23T09:40:15;102041.03;;;13.06;70.91
26443;BME280;5563;52.296;6.806;2023-05-23T09:42:46;102029.56;;;12.91;69.24
26443;BME280;5563;52.296;6.806;2023-05-23T09:45:29;102028.41;;;12.83;68.96
26443;BME280;5563;52.296;6.806;2023-05-23T09:47:57;102022.00;;;12.85;69.70
26443;BME280;5563;52.296;6.806;2023-05-23T09:50:34;102034.38;;;13.12;70.35
26443;BME280;5563;52.296;6.806;2023-05-23T09:53:11;102018.28;;;13.24;68.66
26443;BME280;5563;52.296;6.806;2023-05-23T09:55:38;102027.28;;;13.47;68.19
26443;BME280;5563;52.296;6.806;2023-05-23T09:58:20;102031.78;;;13.93;67.63
26443;BME280;5563;52.296;6.806;2023-05-23T10:00:50;102011.47;;;14.13;63.65
26443;BME280;5563;52.296;6.806;2023-05-23T10:03:33;102031.09;;;14.59;64.40
26443;BME280;5563;52.296;6.806;2023-05-23T10:06:18;102037.31;;;14.71;62.43
26443;BME280;5563;52.296;6.806;2023-05-23T10:09:01;102027.31;;;14.51;62.12
26443;BME280;5563;52.296;6.806;2023-05-23T10:14:09;102025.00;;;14.79;61.86
26443;BME280;5563;52.296;6.806;2023-05-23T10:19:42;102025.59;;;15.05;58.35
26443;BME280;5563;52.296;6.806;2023-05-23T10:22:23;102037.91;;;15.18;57.90
26443;BME280;5563;52.296;6.806;2023-05-23T10:24:56;102020.69;;;15.32;59.82
26443;BME280;5563;52.296;6.806;2023-05-23T10:27:26;102024.47;;;15.72;58.04
26443;BME280;5563;52.296;6.806;2023-05-23T10:30:09;102017.84;;;15.87;58.57
26443;BME280;5563;52.296;6.806;2023-05-23T10:32:40;102037.59;;;16.18;58.91
26443;BME280;5563;52.296;6.806;2023-05-23T10:43:53;102046.00;;;16.66;54.85
26443;BME280;5563;52.296;6.806;2023-05-23T10:49:19;102031.50;;;16.37;57.48
26443;BME280;5563;52.296;6.806;2023-05-23T10:51:53;102038.44;;;16.39;56.24
26443;BME280;5563;52.296;6.806;2023-05-23T10:54:20;102042.66;;;16.11;53.20
26443;BME280;5563;52.296;6.806;2023-05-23T10:57:01;102042.88;;;15.88;54.28
26443;BME280;5563;52.296;6.806;2023-05-23T10:59:36;102023.44;;;15.53;53.75
26443;BME280;5563;52.296;6.806;2023-05-23T11:02:14;102055.09;;;15.38;54.98
26443;BME280;5563;52.296;6.806;2023-05-23T11:05:29;102044.81;;;15.54;55.43
26443;BME280;5563;52.296;6.806;2023-05-23T11:08:10;102050.44;;;15.62;54.81
26443;BME280;5563;52.296;6.806;2023-05-23T11:10:53;102056.03;;;15.70;57.50
26443;BME280;5563;52.296;6.806;2023-05-23T11:16:38;102046.84;;;16.25;54.41
26443;BME280;5563;52.296;6.806;2023-05-23T11:22:01;102041.72;;;16.01;55.98
26443;BME280;5563;52.296;6.806;2023-05-23T11:24:52;102048.81;;;16.02;54.33
26443;BME280;5563;52.296;6.806;2023-05-23T11:27:34;102047.34;;;15.98;53.55
26443;BME280;5563;52.296;6.806;2023-05-23T11:30:08;102062.72;;;16.07;54.71
26443;BME280;5563;52.296;6.806;2023-05-23T11:32:49;102065.81;;;16.03;54.12
26443;BME280;5563;52.296;6.806;2023-05-23T11:35:23;102051.22;;;16.05;54.27
26443;BME280;5563;52.296;6.806;2023-05-23T11:37:51;102060.69;;;16.20;52.64
26443;BME280;5563;52.296;6.806;2023-05-23T11:40:38;102057.41;;;16.17;53.13
26443;BME280;5563;52.296;6.806;2023-05-23T11:43:15;102065.75;;;16.14;53.13
26443;BME280;5563;52.296;6.806;2023-05-23T11:45:42;102063.34;;;16.00;54.30
26443;BME280;5563;52.296;6.806;2023-05-23T11:48:16;102066.69;;;16.24;54.69
26443;BME280;5563;52.296;6.806;2023-05-23T11:50:52;102043.13;;;16.58;51.60
26443;BME280;5563;52.296;6.806;2023-05-23T11:53:26;102078.50;;;16.74;48.70
26443;BME280;5563;52.296;6.806;2023-05-23T11:56:01;102069.41;;;16.65;48.88
26443;BME280;5563;52.296;6.806;2023-05-23T11:58:36;102045.41;;;16.62;49.82
26443;BME280;5563;52.296;6.806;2023-05-23T12:01:10;102066.00;;;16.73;49.08
26443;BME280;5563;52.296;6.806;2023-05-23T12:03:48;102075.81;;;16.74;49.49
26443;BME280;5563;52.296;6.806;2023-05-23T12:06:23;102077.72;;;16.83;52.32
26443;BME280;5563;52.296;6.806;2023-05-23T12:08:51;102067.69;;;16.94;52.71
26443;BME280;5563;52.296;6.806;2023-05-23T12:11:24;102077.03;;;17.20;49.24
26443;BME280;5563;52.296;6.806;2023-05-23T12:13:58;102049.31;;;17.09;50.04
26443;BME280;5563;52.296;6.806;2023-05-23T12:16:38;102062.34;;;17.44;48.96
26443;BME280;5563;52.296;6.806;2023-05-23T12:19:15;102076.31;;;17.68;46.70
26443;BME280;5563;52.296;6.806;2023-05-23T12:21:48;102060.69;;;17.62;45.09
26443;BME280;5563;52.296;6.806;2023-05-23T12:24:19;102078.25;;;17.47;46.78
26443;BME280;5563;52.296;6.806;2023-05-23T12:27:02;102068.66;;;17.33;49.53
26443;BME280;5563;52.296;6.806;2023-05-23T12:29:33;102080.31;;;17.24;48.01
26443;BME280;5563;52.296;6.806;2023-05-23T12:32:07;102081.03;;;17.36;48.43
26443;BME280;5563;52.296;6.806;2023-05-23T12:34:41;102076.59;;;17.25;49.01
26443;BME280;5563;52.296;6.806;2023-05-23T12:37:17;102078.09;;;17.08;47.01
26443;BME280;5563;52.296;6.806;2023-05-23T12:39:46;102082.31;;;16.71;47.69
26443;BME280;5563;52.296;6.806;2023-05-23T12:42:19;102066.53;;;16.46;50.12
26443;BME280;5563;52.296;6.806;2023-05-23T12:44:56;102077.28;;;16.46;50.10
26443;BME280;5563;52.296;6.806;2023-05-23T12:47:23;102084.88;;;16.52;50.62
26443;BME280;5563;52.296;6.806;2023-05-23T12:49:57;102072.50;;;16.29;51.21
26443;BME280;5563;52.296;6.806;2023-05-23T12:52:31;102072.09;;;16.13;49.06
26443;BME280;5563;52.296;6.806;2023-05-23T12:54:58;102078.06;;;15.96;49.64
26443;BME280;5563;52.296;6.806;2023-05-23T12:57:33;102096.84;;;16.07;50.27
26443;BME280;5563;52.296;6.806;2023-05-23T13:00:08;102096.84;;;16.07;51.03
26443;BME280;5563;52.296;6.806;2023-05-23T13:02:35;102095.91;;;15.97;51.37
26443;BME280;5563;52.296;6.806;2023-05-23T13:05:11;102076.81;;;15.68;50.75
26443;BME280;5563;52.296;6.806;2023-05-23T13:07:46;102070.69;;;15.66;51.78
26443;BME280;5563;52.296;6.806;2023-05-23T13:10:13;102101.03;;;16.32;52.15
26443;BME280;5563;52.296;6.806;2023-05-23T13:12:46;102091.84;;;16.75;49.74
26443;BME280;5563;52.296;6.806;2023-05-23T13:15:19;102109.03;;;16.84;48.70
26443;BME280;5563;52.296;6.806;2023-05-23T13:17:50;102091.31;;;16.61;48.80
26443;BME280;5563;52.296;6.806;2023-05-23T13:20:25;102095.09;;;16.38;49.19
26443;BME280;5563;52.296;6.806;2023-05-23T13:22:59;102088.81;;;16.48;48.07
26443;BME280;5563;52.296;6.806;2023-05-23T13:25:35;102096.81;;;16.80;47.54
26443;BME280;5563;52.296;6.806;2023-05-23T13:28:02;102100.22;;;17.12;43.71
26443;BME280;5563;52.296;6.806;2023-05-23T13:30:35;102087.91;;;17.49;44.34
26443;BME280;5563;52.296;6.806;2023-05-23T13:33:03;102105.59;;;17.82;44.22
26443;BME280;5563;52.296;6.806;2023-05-23T13:35:36;102106.81;;;17.59;44.04
26443;BME280;5563;52.296;6.806;2023-05-23T13:38:09;102109.94;;;17.24;44.06
26443;BME280;5563;52.296;6.806;2023-05-23T13:40:44;102087.91;;;17.19;45.67
26443;BME280;5563;52.296;6.806;2023-05-23T13:43:11;102104.56;;;17.64;45.02
26443;BME280;5563;52.296;6.806;2023-05-23T13:45:45;102110.34;;;17.50;45.14
26443;BME280;5563;52.296;6.806;2023-05-23T13:48:13;102109.91;;;17.14;44.91
26443;BME280;5563;52.296;6.806;2023-05-23T13:51:02;102118.50;;;16.78;47.07
26443;BME280;5563;52.296;6.806;2023-05-23T13:53:30;102096.22;;;16.35;49.10
26443;BME280;5563;52.296;6.806;2023-05-23T13:56:03;102117.69;;;16.26;49.23
26443;BME280;5563;52.296;6.806;2023-05-23T13:58:36;102112.69;;;16.21;48.48
26443;BME280;5563;52.296;6.806;2023-05-23T14:01:03;102112.88;;;16.29;49.33
26443;BME280;5563;52.296;6.806;2023-05-23T14:03:37;102118.06;;;16.53;46.65
26443;BME280;5563;52.296;6.806;2023-05-23T14:06:04;102120.00;;;16.71;45.87
26443;BME280;5563;52.296;6.806;2023-05-23T14:08:38;102116.69;;;17.09;45.59
26443;BME280;5563;52.296;6.806;2023-05-23T14:11:05;102110.34;;;17.50;45.56